Baton Rouge Metropolitan Airport Baton Rouge US
ICAO: KBTR
IATA: BTR
Category: Large
Scheduled Services: Yes

Elevation: 70 ft
TransAlt. 18000 ft.

Airport Communications:
APP/DEP:120.3
ATIS:125.2
CLNC DEL:119.4
CTAF:118.45
GND:121.9
DE RIDDER RDO:122.2
TWR:118.45
UNICOM:122.95

KBTR Zoom In..

If Map Doesn't Load, Click Here

Runways:

(A) RW 04L length 7500 ft width 150 ft
---- / hdg 40

(B) RW 04R length 3799 ft width 75 ft
---- / hdg 40

(C) RW 13 length 7004 ft width 150 ft
ILS 110.30 / hdg 130

(D) RW 22L length 3799 ft width 75 ft
---- / hdg 220

(E) RW 22R length 7500 ft width 150 ft
ILS 108.70 / hdg 220

(F) RW 31 length 7004 ft width 150 ft
---- / hdg 310

Location; KBTR
Day. 26 / Time. 09.53 Zulu
* Altimeter: 30.01
* Temperature: 24° c. 75.2°f.
* Wind from: 090° Speed 03 kn.
Dewpoint: 23° c.
Visibility: 9 Statute Miles.
Clouds: Overcast 11000 ft.

KBTR 260953Z AUTO 09003KT 9SM OVC110 24/23 A3001 RMK AO2 SLP162 T02390233


Wind From 090°
Speed 03 kn.

 
 
jpsmedia.com for Web Design worldairports.se 2018   terms of use